sensor_id;sensor_type;location;lat;lon;timestamp;P1;durP1;ratioP1;P2;durP2;ratioP2
68126;SDS011;54931;52.098;21.006;2024-02-26T00:02:18;39.30;;;15.00;;
68126;SDS011;54931;52.098;21.006;2024-02-26T00:04:46;39.20;;;15.70;;
68126;SDS011;54931;52.098;21.006;2024-02-26T00:07:14;35.70;;;14.30;;
68126;SDS011;54931;52.098;21.006;2024-02-26T00:09:42;36.00;;;15.10;;
68126;SDS011;54931;52.098;21.006;2024-02-26T00:12:10;30.30;;;13.00;;
68126;SDS011;54931;52.098;21.006;2024-02-26T00:14:37;30.30;;;12.30;;
68126;SDS011;54931;52.098;21.006;2024-02-26T00:17:05;29.00;;;11.80;;
68126;SDS011;54931;52.098;21.006;2024-02-26T00:19:35;34.50;;;14.20;;
68126;SDS011;54931;52.098;21.006;2024-02-26T00:22:02;31.90;;;11.60;;
68126;SDS011;54931;52.098;21.006;2024-02-26T00:24:30;29.50;;;12.90;;
68126;SDS011;54931;52.098;21.006;2024-02-26T00:26:59;31.20;;;13.10;;
68126;SDS011;54931;52.098;21.006;2024-02-26T00:29:27;29.50;;;12.50;;
68126;SDS011;54931;52.098;21.006;2024-02-26T00:31:55;30.00;;;12.20;;
68126;SDS011;54931;52.098;21.006;2024-02-26T00:34:22;25.90;;;11.30;;
68126;SDS011;54931;52.098;21.006;2024-02-26T00:36:50;31.80;;;13.10;;
68126;SDS011;54931;52.098;21.006;2024-02-26T00:39:18;26.80;;;13.00;;
68126;SDS011;54931;52.098;21.006;2024-02-26T00:41:46;29.70;;;12.50;;
68126;SDS011;54931;52.098;21.006;2024-02-26T00:44:13;30.20;;;10.80;;
68126;SDS011;54931;52.098;21.006;2024-02-26T00:46:41;28.40;;;11.80;;
68126;SDS011;54931;52.098;21.006;2024-02-26T00:49:09;27.80;;;12.10;;
68126;SDS011;54931;52.098;21.006;2024-02-26T00:51:36;33.70;;;13.20;;
68126;SDS011;54931;52.098;21.006;2024-02-26T00:54:04;27.80;;;12.10;;
68126;SDS011;54931;52.098;21.006;2024-02-26T00:56:32;29.80;;;13.10;;
68126;SDS011;54931;52.098;21.006;2024-02-26T00:58:59;29.10;;;12.00;;
68126;SDS011;54931;52.098;21.006;2024-02-26T01:01:27;33.10;;;12.10;;
68126;SDS011;54931;52.098;21.006;2024-02-26T01:03:54;24.30;;;10.20;;
68126;SDS011;54931;52.098;21.006;2024-02-26T01:06:22;29.40;;;12.60;;
68126;SDS011;54931;52.098;21.006;2024-02-26T01:08:50;33.80;;;12.60;;
68126;SDS011;54931;52.098;21.006;2024-02-26T01:11:17;33.40;;;13.50;;
68126;SDS011;54931;52.098;21.006;2024-02-26T01:13:45;30.80;;;12.50;;
68126;SDS011;54931;52.098;21.006;2024-02-26T01:16:13;33.30;;;14.70;;
68126;SDS011;54931;52.098;21.006;2024-02-26T01:18:41;35.50;;;14.90;;
68126;SDS011;54931;52.098;21.006;2024-02-26T01:21:08;35.00;;;14.50;;
68126;SDS011;54931;52.098;21.006;2024-02-26T01:23:36;32.20;;;13.10;;
68126;SDS011;54931;52.098;21.006;2024-02-26T01:26:04;36.50;;;13.90;;
68126;SDS011;54931;52.098;21.006;2024-02-26T01:28:32;34.50;;;14.60;;
68126;SDS011;54931;52.098;21.006;2024-02-26T01:30:59;34.30;;;13.90;;
68126;SDS011;54931;52.098;21.006;2024-02-26T01:35:55;31.80;;;12.40;;
68126;SDS011;54931;52.098;21.006;2024-02-26T01:38:23;37.60;;;14.50;;
68126;SDS011;54931;52.098;21.006;2024-02-26T01:40:51;28.40;;;11.70;;
68126;SDS011;54931;52.098;21.006;2024-02-26T01:43:19;25.80;;;10.50;;
68126;SDS011;54931;52.098;21.006;2024-02-26T01:45:47;29.10;;;11.90;;
68126;SDS011;54931;52.098;21.006;2024-02-26T01:48:14;33.10;;;12.70;;
68126;SDS011;54931;52.098;21.006;2024-02-26T01:50:42;33.00;;;14.20;;
68126;SDS011;54931;52.098;21.006;2024-02-26T01:53:10;34.40;;;14.50;;
68126;SDS011;54931;52.098;21.006;2024-02-26T01:55:39;31.50;;;12.70;;
68126;SDS011;54931;52.098;21.006;2024-02-26T01:58:07;39.90;;;15.60;;
68126;SDS011;54931;52.098;21.006;2024-02-26T02:00:37;39.70;;;15.20;;
68126;SDS011;54931;52.098;21.006;2024-02-26T02:03:05;27.60;;;11.00;;
68126;SDS011;54931;52.098;21.006;2024-02-26T02:05:34;32.50;;;12.30;;
68126;SDS011;54931;52.098;21.006;2024-02-26T02:08:11;35.30;;;14.30;;
68126;SDS011;54931;52.098;21.006;2024-02-26T02:10:41;35.80;;;14.70;;
68126;SDS011;54931;52.098;21.006;2024-02-26T02:13:09;34.00;;;13.80;;
68126;SDS011;54931;52.098;21.006;2024-02-26T02:15:37;32.70;;;13.30;;
68126;SDS011;54931;52.098;21.006;2024-02-26T02:18:05;27.80;;;11.90;;
68126;SDS011;54931;52.098;21.006;2024-02-26T02:20:35;29.20;;;11.90;;
68126;SDS011;54931;52.098;21.006;2024-02-26T02:23:03;28.50;;;11.30;;
68126;SDS011;54931;52.098;21.006;2024-02-26T02:25:31;36.20;;;14.00;;
68126;SDS011;54931;52.098;21.006;2024-02-26T02:27:59;31.40;;;14.30;;
68126;SDS011;54931;52.098;21.006;2024-02-26T02:30:29;32.60;;;14.00;;
68126;SDS011;54931;52.098;21.006;2024-02-26T02:32:58;24.70;;;10.00;;
68126;SDS011;54931;52.098;21.006;2024-02-26T02:35:26;28.70;;;11.80;;
68126;SDS011;54931;52.098;21.006;2024-02-26T02:37:55;27.60;;;12.10;;
68126;SDS011;54931;52.098;21.006;2024-02-26T02:40:24;31.10;;;13.20;;
68126;SDS011;54931;52.098;21.006;2024-02-26T02:42:52;26.90;;;11.60;;
68126;SDS011;54931;52.098;21.006;2024-02-26T02:45:19;23.90;;;10.10;;
68126;SDS011;54931;52.098;21.006;2024-02-26T02:47:48;31.00;;;12.40;;
68126;SDS011;54931;52.098;21.006;2024-02-26T02:50:15;33.60;;;13.70;;
68126;SDS011;54931;52.098;21.006;2024-02-26T02:52:43;31.70;;;13.20;;
68126;SDS011;54931;52.098;21.006;2024-02-26T02:55:11;35.60;;;14.30;;
68126;SDS011;54931;52.098;21.006;2024-02-26T02:57:39;44.20;;;15.60;;
68126;SDS011;54931;52.098;21.006;2024-02-26T03:00:09;39.40;;;15.60;;
68126;SDS011;54931;52.098;21.006;2024-02-26T03:02:37;38.20;;;16.40;;
68126;SDS011;54931;52.098;21.006;2024-02-26T03:05:05;39.10;;;15.40;;
68126;SDS011;54931;52.098;21.006;2024-02-26T03:07:34;36.30;;;15.50;;
68126;SDS011;54931;52.098;21.006;2024-02-26T03:10:02;38.30;;;15.80;;
68126;SDS011;54931;52.098;21.006;2024-02-26T03:12:31;35.10;;;14.00;;
68126;SDS011;54931;52.098;21.006;2024-02-26T03:15:01;33.80;;;12.80;;
68126;SDS011;54931;52.098;21.006;2024-02-26T03:17:30;31.90;;;12.70;;
68126;SDS011;54931;52.098;21.006;2024-02-26T03:19:58;29.90;;;13.10;;
68126;SDS011;54931;52.098;21.006;2024-02-26T03:22:26;34.40;;;14.90;;
68126;SDS011;54931;52.098;21.006;2024-02-26T03:24:54;24.90;;;10.50;;
68126;SDS011;54931;52.098;21.006;2024-02-26T03:27:22;35.00;;;13.10;;
68126;SDS011;54931;52.098;21.006;2024-02-26T03:29:50;26.40;;;11.20;;
68126;SDS011;54931;52.098;21.006;2024-02-26T03:32:19;30.70;;;12.00;;
68126;SDS011;54931;52.098;21.006;2024-02-26T03:34:47;34.30;;;12.40;;
68126;SDS011;54931;52.098;21.006;2024-02-26T03:37:15;31.90;;;12.90;;
68126;SDS011;54931;52.098;21.006;2024-02-26T03:39:43;25.50;;;11.20;;
68126;SDS011;54931;52.098;21.006;2024-02-26T03:42:10;26.30;;;11.10;;
68126;SDS011;54931;52.098;21.006;2024-02-26T03:44:38;28.20;;;12.10;;
68126;SDS011;54931;52.098;21.006;2024-02-26T03:47:06;27.10;;;11.60;;
68126;SDS011;54931;52.098;21.006;2024-02-26T03:49:34;31.00;;;11.60;;
68126;SDS011;54931;52.098;21.006;2024-02-26T03:52:02;28.00;;;9.80;;
68126;SDS011;54931;52.098;21.006;2024-02-26T03:54:30;31.10;;;12.20;;
68126;SDS011;54931;52.098;21.006;2024-02-26T03:56:57;26.00;;;10.90;;
68126;SDS011;54931;52.098;21.006;2024-02-26T03:59:25;24.80;;;11.30;;
68126;SDS011;54931;52.098;21.006;2024-02-26T04:01:53;28.50;;;11.70;;
68126;SDS011;54931;52.098;21.006;2024-02-26T04:04:21;24.70;;;11.00;;
68126;SDS011;54931;52.098;21.006;2024-02-26T04:06:49;24.20;;;10.40;;
68126;SDS011;54931;52.098;21.006;2024-02-26T04:09:16;32.50;;;12.20;;
68126;SDS011;54931;52.098;21.006;2024-02-26T04:11:44;31.70;;;13.40;;
68126;SDS011;54931;52.098;21.006;2024-02-26T04:14:16;31.90;;;13.20;;
68126;SDS011;54931;52.098;21.006;2024-02-26T04:16:43;30.60;;;13.00;;
68126;SDS011;54931;52.098;21.006;2024-02-26T04:19:11;26.50;;;11.10;;
68126;SDS011;54931;52.098;21.006;2024-02-26T04:21:41;23.10;;;9.90;;
68126;SDS011;54931;52.098;21.006;2024-02-26T04:24:10;26.10;;;11.50;;
68126;SDS011;54931;52.098;21.006;2024-02-26T04:26:38;22.80;;;9.90;;
68126;SDS011;54931;52.098;21.006;2024-02-26T04:29:05;31.00;;;12.40;;
68126;SDS011;54931;52.098;21.006;2024-02-26T04:31:33;35.10;;;12.90;;
68126;SDS011;54931;52.098;21.006;2024-02-26T04:34:01;31.60;;;12.10;;
68126;SDS011;54931;52.098;21.006;2024-02-26T04:36:28;28.70;;;12.10;;
68126;SDS011;54931;52.098;21.006;2024-02-26T04:38:56;26.30;;;11.90;;
68126;SDS011;54931;52.098;21.006;2024-02-26T04:41:24;24.20;;;10.10;;
68126;SDS011;54931;52.098;21.006;2024-02-26T04:43:51;26.60;;;10.30;;
68126;SDS011;54931;52.098;21.006;2024-02-26T04:46:19;35.40;;;13.60;;
68126;SDS011;54931;52.098;21.006;2024-02-26T04:48:50;37.70;;;14.50;;
68126;SDS011;54931;52.098;21.006;2024-02-26T04:51:18;35.60;;;15.10;;
68126;SDS011;54931;52.098;21.006;2024-02-26T04:53:46;35.10;;;13.90;;
68126;SDS011;54931;52.098;21.006;2024-02-26T04:56:14;27.90;;;11.70;;
68126;SDS011;54931;52.098;21.006;2024-02-26T04:58:41;25.30;;;10.20;;
68126;SDS011;54931;52.098;21.006;2024-02-26T05:01:09;28.00;;;10.90;;
68126;SDS011;54931;52.098;21.006;2024-02-26T05:03:37;34.50;;;14.60;;
68126;SDS011;54931;52.098;21.006;2024-02-26T05:06:05;30.90;;;14.00;;
68126;SDS011;54931;52.098;21.006;2024-02-26T05:08:33;34.20;;;14.00;;
68126;SDS011;54931;52.098;21.006;2024-02-26T05:11:03;29.00;;;12.30;;
68126;SDS011;54931;52.098;21.006;2024-02-26T05:13:31;20.30;;;8.90;;
68126;SDS011;54931;52.098;21.006;2024-02-26T05:16:00;25.50;;;10.90;;
68126;SDS011;54931;52.098;21.006;2024-02-26T05:18:28;30.90;;;11.90;;
68126;SDS011;54931;52.098;21.006;2024-02-26T05:20:56;29.60;;;11.00;;
68126;SDS011;54931;52.098;21.006;2024-02-26T05:23:23;32.20;;;12.30;;
68126;SDS011;54931;52.098;21.006;2024-02-26T05:25:51;32.10;;;13.70;;
68126;SDS011;54931;52.098;21.006;2024-02-26T05:28:19;32.70;;;13.90;;
68126;SDS011;54931;52.098;21.006;2024-02-26T05:30:48;37.10;;;14.90;;
68126;SDS011;54931;52.098;21.006;2024-02-26T05:33:16;35.50;;;15.10;;
68126;SDS011;54931;52.098;21.006;2024-02-26T05:35:43;31.30;;;13.80;;
68126;SDS011;54931;52.098;21.006;2024-02-26T05:38:11;32.60;;;13.90;;
68126;SDS011;54931;52.098;21.006;2024-02-26T05:40:39;30.40;;;13.20;;
68126;SDS011;54931;52.098;21.006;2024-02-26T05:43:07;37.10;;;15.40;;
68126;SDS011;54931;52.098;21.006;2024-02-26T05:45:35;34.40;;;14.50;;
68126;SDS011;54931;52.098;21.006;2024-02-26T05:48:03;37.30;;;15.80;;
68126;SDS011;54931;52.098;21.006;2024-02-26T05:50:31;33.90;;;13.90;;
68126;SDS011;54931;52.098;21.006;2024-02-26T05:52:59;39.10;;;15.60;;
68126;SDS011;54931;52.098;21.006;2024-02-26T05:55:27;37.40;;;15.10;;
68126;SDS011;54931;52.098;21.006;2024-02-26T05:57:55;36.10;;;15.10;;
68126;SDS011;54931;52.098;21.006;2024-02-26T06:00:23;34.10;;;14.20;;
68126;SDS011;54931;52.098;21.006;2024-02-26T06:02:51;31.40;;;12.40;;
68126;SDS011;54931;52.098;21.006;2024-02-26T06:05:19;38.10;;;14.20;;
68126;SDS011;54931;52.098;21.006;2024-02-26T06:07:47;33.50;;;14.10;;
68126;SDS011;54931;52.098;21.006;2024-02-26T06:10:15;38.20;;;16.40;;
68126;SDS011;54931;52.098;21.006;2024-02-26T06:12:43;39.40;;;16.90;;
68126;SDS011;54931;52.098;21.006;2024-02-26T06:15:11;41.80;;;17.00;;
68126;SDS011;54931;52.098;21.006;2024-02-26T06:17:39;37.00;;;16.30;;
68126;SDS011;54931;52.098;21.006;2024-02-26T06:20:08;36.90;;;16.00;;
68126;SDS011;54931;52.098;21.006;2024-02-26T06:22:41;35.80;;;15.60;;
68126;SDS011;54931;52.098;21.006;2024-02-26T06:25:09;41.60;;;17.30;;
68126;SDS011;54931;52.098;21.006;2024-02-26T06:27:38;38.90;;;16.00;;
68126;SDS011;54931;52.098;21.006;2024-02-26T06:30:07;34.40;;;14.50;;
68126;SDS011;54931;52.098;21.006;2024-02-26T06:32:37;32.50;;;14.90;;
68126;SDS011;54931;52.098;21.006;2024-02-26T06:35:05;26.20;;;12.70;;
68126;SDS011;54931;52.098;21.006;2024-02-26T06:37:37;29.70;;;14.80;;
68126;SDS011;54931;52.098;21.006;2024-02-26T06:40:05;32.20;;;14.10;;
68126;SDS011;54931;52.098;21.006;2024-02-26T06:42:34;31.70;;;14.30;;
68126;SDS011;54931;52.098;21.006;2024-02-26T06:45:03;42.80;;;17.00;;
68126;SDS011;54931;52.098;21.006;2024-02-26T06:47:31;45.10;;;16.60;;
68126;SDS011;54931;52.098;21.006;2024-02-26T06:49:59;41.10;;;16.20;;
68126;SDS011;54931;52.098;21.006;2024-02-26T06:52:28;36.80;;;16.50;;
68126;SDS011;54931;52.098;21.006;2024-02-26T06:54:56;39.20;;;16.70;;
68126;SDS011;54931;52.098;21.006;2024-02-26T06:57:24;37.40;;;16.20;;
68126;SDS011;54931;52.098;21.006;2024-02-26T06:59:51;38.40;;;17.40;;
68126;SDS011;54931;52.098;21.006;2024-02-26T07:02:19;32.40;;;15.20;;
68126;SDS011;54931;52.098;21.006;2024-02-26T07:04:47;38.10;;;17.80;;
68126;SDS011;54931;52.098;21.006;2024-02-26T07:07:15;30.40;;;14.60;;
68126;SDS011;54931;52.098;21.006;2024-02-26T07:09:45;34.00;;;15.30;;
68126;SDS011;54931;52.098;21.006;2024-02-26T07:12:13;34.20;;;15.20;;
68126;SDS011;54931;52.098;21.006;2024-02-26T07:14:41;27.30;;;14.00;;
68126;SDS011;54931;52.098;21.006;2024-02-26T07:17:10;22.80;;;10.70;;
68126;SDS011;54931;52.098;21.006;2024-02-26T07:19:38;27.60;;;13.40;;
68126;SDS011;54931;52.098;21.006;2024-02-26T07:22:06;31.50;;;15.10;;
68126;SDS011;54931;52.098;21.006;2024-02-26T07:24:34;28.60;;;13.50;;
68126;SDS011;54931;52.098;21.006;2024-02-26T07:27:02;22.70;;;9.90;;
68126;SDS011;54931;52.098;21.006;2024-02-26T07:29:31;26.80;;;12.20;;
68126;SDS011;54931;52.098;21.006;2024-02-26T07:31:59;25.30;;;11.50;;
68126;SDS011;54931;52.098;21.006;2024-02-26T07:34:27;30.20;;;14.20;;
68126;SDS011;54931;52.098;21.006;2024-02-26T07:36:56;28.00;;;13.70;;
68126;SDS011;54931;52.098;21.006;2024-02-26T07:39:24;28.50;;;15.00;;
68126;SDS011;54931;52.098;21.006;2024-02-26T07:41:52;28.90;;;15.20;;
68126;SDS011;54931;52.098;21.006;2024-02-26T07:44:20;28.70;;;15.50;;
68126;SDS011;54931;52.098;21.006;2024-02-26T07:46:48;29.90;;;14.30;;
68126;SDS011;54931;52.098;21.006;2024-02-26T07:49:16;21.20;;;9.50;;
68126;SDS011;54931;52.098;21.006;2024-02-26T07:51:45;29.10;;;14.80;;
68126;SDS011;54931;52.098;21.006;2024-02-26T07:54:13;30.10;;;14.70;;
68126;SDS011;54931;52.098;21.006;2024-02-26T07:59:11;23.70;;;11.80;;
68126;SDS011;54931;52.098;21.006;2024-02-26T08:01:39;24.60;;;12.30;;
68126;SDS011;54931;52.098;21.006;2024-02-26T08:04:08;24.90;;;12.60;;
68126;SDS011;54931;52.098;21.006;2024-02-26T08:06:36;20.50;;;11.00;;
68126;SDS011;54931;52.098;21.006;2024-02-26T08:09:04;22.60;;;12.70;;
68126;SDS011;54931;52.098;21.006;2024-02-26T08:14:00;20.50;;;12.60;;
68126;SDS011;54931;52.098;21.006;2024-02-26T08:18:56;15.50;;;8.80;;
68126;SDS011;54931;52.098;21.006;2024-02-26T08:21:24;19.20;;;10.80;;
68126;SDS011;54931;52.098;21.006;2024-02-26T08:23:52;17.70;;;9.20;;
68126;SDS011;54931;52.098;21.006;2024-02-26T08:26:19;19.00;;;11.80;;
68126;SDS011;54931;52.098;21.006;2024-02-26T08:28:49;14.90;;;7.60;;
68126;SDS011;54931;52.098;21.006;2024-02-26T08:31:18;18.90;;;11.10;;
68126;SDS011;54931;52.098;21.006;2024-02-26T08:33:46;20.10;;;11.40;;
68126;SDS011;54931;52.098;21.006;2024-02-26T08:36:14;20.00;;;9.80;;
68126;SDS011;54931;52.098;21.006;2024-02-26T08:38:42;16.00;;;7.50;;
68126;SDS011;54931;52.098;21.006;2024-02-26T08:41:10;17.70;;;11.90;;
68126;SDS011;54931;52.098;21.006;2024-02-26T08:43:38;16.90;;;8.30;;
68126;SDS011;54931;52.098;21.006;2024-02-26T08:46:09;13.90;;;8.60;;
68126;SDS011;54931;52.098;21.006;2024-02-26T08:48:39;18.20;;;8.50;;
68126;SDS011;54931;52.098;21.006;2024-02-26T08:51:08;23.30;;;11.90;;
68126;SDS011;54931;52.098;21.006;2024-02-26T08:53:36;20.70;;;10.00;;
68126;SDS011;54931;52.098;21.006;2024-02-26T08:56:05;21.20;;;11.10;;
68126;SDS011;54931;52.098;21.006;2024-02-26T08:58:33;15.80;;;9.60;;
68126;SDS011;54931;52.098;21.006;2024-02-26T09:01:01;18.90;;;11.50;;
68126;SDS011;54931;52.098;21.006;2024-02-26T09:03:29;24.40;;;10.50;;
68126;SDS011;54931;52.098;21.006;2024-02-26T09:05:56;19.20;;;10.70;;
68126;SDS011;54931;52.098;21.006;2024-02-26T09:08:25;21.20;;;11.70;;
68126;SDS011;54931;52.098;21.006;2024-02-26T09:10:53;19.50;;;8.50;;
68126;SDS011;54931;52.098;21.006;2024-02-26T09:13:21;18.50;;;9.50;;
68126;SDS011;54931;52.098;21.006;2024-02-26T09:15:48;20.40;;;11.70;;
68126;SDS011;54931;52.098;21.006;2024-02-26T09:18:16;17.20;;;9.50;;
68126;SDS011;54931;52.098;21.006;2024-02-26T09:20:44;23.60;;;12.60;;
68126;SDS011;54931;52.098;21.006;2024-02-26T09:23:12;18.40;;;8.80;;
68126;SDS011;54931;52.098;21.006;2024-02-26T09:25:41;16.00;;;9.40;;
68126;SDS011;54931;52.098;21.006;2024-02-26T09:28:12;20.70;;;11.60;;
68126;SDS011;54931;52.098;21.006;2024-02-26T09:30:40;18.60;;;10.10;;
68126;SDS011;54931;52.098;21.006;2024-02-26T09:33:08;21.30;;;12.40;;
68126;SDS011;54931;52.098;21.006;2024-02-26T09:35:36;19.30;;;10.60;;
68126;SDS011;54931;52.098;21.006;2024-02-26T09:38:04;19.80;;;11.30;;
68126;SDS011;54931;52.098;21.006;2024-02-26T09:40:32;22.60;;;11.70;;
68126;SDS011;54931;52.098;21.006;2024-02-26T09:43:00;19.10;;;11.60;;
68126;SDS011;54931;52.098;21.006;2024-02-26T09:45:30;21.20;;;12.00;;
68126;SDS011;54931;52.098;21.006;2024-02-26T09:48:02;20.10;;;10.00;;
68126;SDS011;54931;52.098;21.006;2024-02-26T09:50:33;18.90;;;10.50;;
68126;SDS011;54931;52.098;21.006;2024-02-26T09:53:01;19.10;;;11.00;;
68126;SDS011;54931;52.098;21.006;2024-02-26T09:55:30;18.30;;;10.90;;
68126;SDS011;54931;52.098;21.006;2024-02-26T09:57:57;20.20;;;11.70;;
68126;SDS011;54931;52.098;21.006;2024-02-26T10:00:27;21.80;;;10.40;;
68126;SDS011;54931;52.098;21.006;2024-02-26T10:03:05;19.30;;;12.20;;
68126;SDS011;54931;52.098;21.006;2024-02-26T10:05:37;18.50;;;9.30;;
68126;SDS011;54931;52.098;21.006;2024-02-26T10:08:06;20.10;;;12.30;;
68126;SDS011;54931;52.098;21.006;2024-02-26T10:10:36;20.30;;;11.30;;
68126;SDS011;54931;52.098;21.006;2024-02-26T10:13:08;20.30;;;11.90;;
68126;SDS011;54931;52.098;21.006;2024-02-26T10:15:39;18.90;;;11.20;;
68126;SDS011;54931;52.098;21.006;2024-02-26T10:18:07;15.70;;;8.90;;
68126;SDS011;54931;52.098;21.006;2024-02-26T10:20:35;16.70;;;9.90;;
68126;SDS011;54931;52.098;21.006;2024-02-26T10:23:03;17.50;;;9.90;;
68126;SDS011;54931;52.098;21.006;2024-02-26T10:25:32;18.20;;;10.80;;
68126;SDS011;54931;52.098;21.006;2024-02-26T10:28:01;19.50;;;9.40;;
68126;SDS011;54931;52.098;21.006;2024-02-26T10:30:36;15.30;;;9.40;;
68126;SDS011;54931;52.098;21.006;2024-02-26T10:33:07;18.10;;;11.10;;
68126;SDS011;54931;52.098;21.006;2024-02-26T10:35:36;17.90;;;10.00;;
68126;SDS011;54931;52.098;21.006;2024-02-26T10:38:08;19.30;;;9.50;;
68126;SDS011;54931;52.098;21.006;2024-02-26T10:40:36;20.80;;;10.70;;
68126;SDS011;54931;52.098;21.006;2024-02-26T10:43:04;20.90;;;11.10;;
68126;SDS011;54931;52.098;21.006;2024-02-26T10:45:32;18.40;;;10.10;;
68126;SDS011;54931;52.098;21.006;2024-02-26T10:48:00;18.70;;;11.40;;
68126;SDS011;54931;52.098;21.006;2024-02-26T10:50:28;16.00;;;9.00;;
68126;SDS011;54931;52.098;21.006;2024-02-26T10:52:57;18.00;;;9.70;;
68126;SDS011;54931;52.098;21.006;2024-02-26T10:55:27;16.00;;;9.60;;
68126;SDS011;54931;52.098;21.006;2024-02-26T10:57:55;15.50;;;9.10;;
68126;SDS011;54931;52.098;21.006;2024-02-26T11:00:24;13.10;;;7.10;;
68126;SDS011;54931;52.098;21.006;2024-02-26T11:02:53;11.20;;;6.80;;
68126;SDS011;54931;52.098;21.006;2024-02-26T11:05:22;15.30;;;8.70;;
68126;SDS011;54931;52.098;21.006;2024-02-26T11:07:50;12.90;;;7.30;;
68126;SDS011;54931;52.098;21.006;2024-02-26T11:10:20;12.40;;;7.10;;
68126;SDS011;54931;52.098;21.006;2024-02-26T11:12:51;14.90;;;8.60;;
68126;SDS011;54931;52.098;21.006;2024-02-26T11:15:21;11.70;;;6.70;;
68126;SDS011;54931;52.098;21.006;2024-02-26T11:17:52;10.10;;;5.40;;
68126;SDS011;54931;52.098;21.006;2024-02-26T11:20:23;9.80;;;5.30;;
68126;SDS011;54931;52.098;21.006;2024-02-26T11:22:51;11.50;;;6.30;;
68126;SDS011;54931;52.098;21.006;2024-02-26T11:25:19;10.20;;;6.10;;
68126;SDS011;54931;52.098;21.006;2024-02-26T11:27:51;11.20;;;7.30;;
68126;SDS011;54931;52.098;21.006;2024-02-26T11:30:30;9.90;;;6.40;;
68126;SDS011;54931;52.098;21.006;2024-02-26T11:33:02;11.60;;;7.90;;
68126;SDS011;54931;52.098;21.006;2024-02-26T11:35:30;12.20;;;7.40;;
68126;SDS011;54931;52.098;21.006;2024-02-26T11:38:01;8.70;;;6.20;;
68126;SDS011;54931;52.098;21.006;2024-02-26T11:40:32;7.80;;;5.70;;
68126;SDS011;54931;52.098;21.006;2024-02-26T11:43:01;7.70;;;5.30;;
68126;SDS011;54931;52.098;21.006;2024-02-26T11:48:20;7.70;;;5.00;;
68126;SDS011;54931;52.098;21.006;2024-02-26T11:50:54;5.20;;;3.30;;
68126;SDS011;54931;52.098;21.006;2024-02-26T11:53:24;8.30;;;5.10;;
68126;SDS011;54931;52.098;21.006;2024-02-26T11:58:57;7.80;;;5.20;;
68126;SDS011;54931;52.098;21.006;2024-02-26T12:01:35;8.60;;;5.30;;
68126;SDS011;54931;52.098;21.006;2024-02-26T12:09:41;8.10;;;5.30;;
68126;SDS011;54931;52.098;21.006;2024-02-26T12:12:10;7.00;;;4.80;;
68126;SDS011;54931;52.098;21.006;2024-02-26T12:14:52;8.30;;;5.20;;
68126;SDS011;54931;52.098;21.006;2024-02-26T12:17:24;9.10;;;5.50;;
68126;SDS011;54931;52.098;21.006;2024-02-26T12:19:52;9.20;;;5.60;;
68126;SDS011;54931;52.098;21.006;2024-02-26T12:22:21;8.20;;;5.30;;
68126;SDS011;54931;52.098;21.006;2024-02-26T12:24:58;9.00;;;5.70;;
68126;SDS011;54931;52.098;21.006;2024-02-26T12:27:28;8.70;;;5.50;;
68126;SDS011;54931;52.098;21.006;2024-02-26T12:29:56;8.10;;;5.40;;
68126;SDS011;54931;52.098;21.006;2024-02-26T12:32:24;7.80;;;4.80;;
68126;SDS011;54931;52.098;21.006;2024-02-26T12:34:53;7.40;;;4.90;;
68126;SDS011;54931;52.098;21.006;2024-02-26T12:37:21;8.70;;;5.20;;
68126;SDS011;54931;52.098;21.006;2024-02-26T12:39:50;6.00;;;4.70;;
68126;SDS011;54931;52.098;21.006;2024-02-26T12:42:18;8.20;;;4.40;;
68126;SDS011;54931;52.098;21.006;2024-02-26T12:44:46;8.30;;;4.80;;
68126;SDS011;54931;52.098;21.006;2024-02-26T12:47:14;6.90;;;4.30;;
68126;SDS011;54931;52.098;21.006;2024-02-26T12:49:47;6.70;;;3.80;;
68126;SDS011;54931;52.098;21.006;2024-02-26T12:52:16;7.80;;;3.30;;
68126;SDS011;54931;52.098;21.006;2024-02-26T12:54:44;6.60;;;3.90;;
68126;SDS011;54931;52.098;21.006;2024-02-26T12:57:12;4.10;;;2.50;;
68126;SDS011;54931;52.098;21.006;2024-02-26T12:59:41;5.80;;;4.00;;
68126;SDS011;54931;52.098;21.006;2024-02-26T13:02:09;5.00;;;2.90;;
68126;SDS011;54931;52.098;21.006;2024-02-26T13:04:39;5.50;;;3.90;;
68126;SDS011;54931;52.098;21.006;2024-02-26T13:07:08;5.70;;;4.10;;
68126;SDS011;54931;52.098;21.006;2024-02-26T13:09:36;4.90;;;3.90;;
68126;SDS011;54931;52.098;21.006;2024-02-26T13:12:05;4.90;;;3.60;;
68126;SDS011;54931;52.098;21.006;2024-02-26T13:14:34;5.40;;;3.40;;
68126;SDS011;54931;52.098;21.006;2024-02-26T13:17:03;5.80;;;3.80;;
68126;SDS011;54931;52.098;21.006;2024-02-26T13:19:32;6.80;;;4.00;;
68126;SDS011;54931;52.098;21.006;2024-02-26T13:22:06;4.70;;;2.90;;
68126;SDS011;54931;52.098;21.006;2024-02-26T13:24:35;5.00;;;3.50;;
68126;SDS011;54931;52.098;21.006;2024-02-26T13:27:03;7.20;;;3.30;;
68126;SDS011;54931;52.098;21.006;2024-02-26T13:29:33;5.30;;;3.40;;
68126;SDS011;54931;52.098;21.006;2024-02-26T13:32:00;4.20;;;3.30;;
68126;SDS011;54931;52.098;21.006;2024-02-26T13:34:29;5.20;;;3.30;;
68126;SDS011;54931;52.098;21.006;2024-02-26T13:36:57;4.90;;;3.20;;
68126;SDS011;54931;52.098;21.006;2024-02-26T13:39:27;4.60;;;3.20;;
68126;SDS011;54931;52.098;21.006;2024-02-26T13:41:55;5.70;;;3.10;;
68126;SDS011;54931;52.098;21.006;2024-02-26T13:44:24;4.80;;;3.60;;
68126;SDS011;54931;52.098;21.006;2024-02-26T13:46:51;6.30;;;3.30;;
68126;SDS011;54931;52.098;21.006;2024-02-26T13:49:19;5.20;;;3.30;;
68126;SDS011;54931;52.098;21.006;2024-02-26T13:51:47;4.80;;;3.70;;
68126;SDS011;54931;52.098;21.006;2024-02-26T13:54:14;5.70;;;3.20;;
68126;SDS011;54931;52.098;21.006;2024-02-26T13:56:42;5.00;;;3.40;;
68126;SDS011;54931;52.098;21.006;2024-02-26T13:59:11;5.70;;;4.70;;
68126;SDS011;54931;52.098;21.006;2024-02-26T14:01:38;5.10;;;3.60;;
68126;SDS011;54931;52.098;21.006;2024-02-26T14:04:06;4.40;;;3.40;;
68126;SDS011;54931;52.098;21.006;2024-02-26T14:06:36;4.80;;;3.20;;
68126;SDS011;54931;52.098;21.006;2024-02-26T14:09:04;5.70;;;3.50;;
68126;SDS011;54931;52.098;21.006;2024-02-26T14:11:31;6.00;;;3.70;;
68126;SDS011;54931;52.098;21.006;2024-02-26T14:13:59;6.00;;;3.90;;
68126;SDS011;54931;52.098;21.006;2024-02-26T14:16:27;6.10;;;3.50;;
68126;SDS011;54931;52.098;21.006;2024-02-26T14:18:54;6.00;;;3.80;;
68126;SDS011;54931;52.098;21.006;2024-02-26T14:21:22;5.10;;;3.70;;
68126;SDS011;54931;52.098;21.006;2024-02-26T14:23:50;6.40;;;3.80;;
68126;SDS011;54931;52.098;21.006;2024-02-26T14:26:17;5.30;;;3.20;;
68126;SDS011;54931;52.098;21.006;2024-02-26T14:28:45;6.20;;;4.20;;
68126;SDS011;54931;52.098;21.006;2024-02-26T14:31:17;5.10;;;3.80;;
68126;SDS011;54931;52.098;21.006;2024-02-26T14:33:45;6.10;;;3.60;;
68126;SDS011;54931;52.098;21.006;2024-02-26T14:36:13;5.90;;;3.80;;
68126;SDS011;54931;52.098;21.006;2024-02-26T14:38:41;5.50;;;3.60;;
68126;SDS011;54931;52.098;21.006;2024-02-26T14:41:09;5.60;;;3.80;;
68126;SDS011;54931;52.098;21.006;2024-02-26T14:43:37;5.00;;;3.50;;
68126;SDS011;54931;52.098;21.006;2024-02-26T14:46:05;5.70;;;3.40;;